createdAt,value
2018-08-03T00:00:51.671Z,100213.27
2018-08-03T00:05:56.590Z,100216.50
2018-08-03T00:11:01.383Z,100215.23
2018-08-03T00:16:06.257Z,100208.40
2018-08-03T00:21:11.149Z,100212.53
2018-08-03T00:26:15.939Z,100209.81
2018-08-03T00:31:21.498Z,100193.67
2018-08-03T00:36:26.155Z,100203.86
2018-08-03T00:41:30.791Z,100196.72
2018-08-03T00:46:35.586Z,100207.43
2018-08-03T00:51:40.204Z,100203.34
2018-08-03T00:56:44.839Z,100205.52
2018-08-03T01:01:49.647Z,100204.17
2018-08-03T01:06:54.313Z,100205.54
2018-08-03T01:11:58.912Z,100204.47
2018-08-03T01:17:03.632Z,100210.51
2018-08-03T01:22:08.248Z,100206.91
2018-08-03T01:27:12.855Z,100207.47
2018-08-03T01:32:17.661Z,100208.58
2018-08-03T01:37:22.435Z,100204.76
2018-08-03T01:42:27.291Z,100203.93
2018-08-03T01:47:32.021Z,100203.37
2018-08-03T01:52:36.684Z,100201.17
2018-08-03T01:57:41.374Z,100199.00
2018-08-03T02:02:46.064Z,100200.63
2018-08-03T02:07:50.766Z,100205.02
2018-08-03T02:12:55.480Z,100199.20
2018-08-03T02:18:00.171Z,100206.34
2018-08-03T02:23:04.891Z,100212.63
2018-08-03T02:28:09.680Z,100210.14
2018-08-03T02:33:14.408Z,100205.75
2018-08-03T02:38:19.046Z,100197.02
2018-08-03T02:43:23.725Z,100200.25
2018-08-03T02:48:28.422Z,100197.22
2018-08-03T02:53:33.153Z,100196.06
2018-08-03T02:58:37.866Z,100201.86
2018-08-03T03:03:42.523Z,100204.03
2018-08-03T03:08:47.183Z,100201.03
2018-08-03T03:13:52.304Z,100211.08
2018-08-03T03:18:56.956Z,100200.98
2018-08-03T03:24:01.722Z,100209.17
2018-08-03T03:29:06.383Z,100205.83
2018-08-03T03:34:11.004Z,100209.61
2018-08-03T03:39:15.728Z,100215.04
2018-08-03T03:44:20.546Z,100209.03
2018-08-03T03:49:25.439Z,100213.79
2018-08-03T03:54:30.147Z,100219.75
2018-08-03T03:59:34.836Z,100209.51
2018-08-03T04:04:39.613Z,100208.37
2018-08-03T04:09:44.259Z,100213.05
2018-08-03T04:14:49.038Z,100211.72
2018-08-03T04:19:53.725Z,100215.56
2018-08-03T04:24:58.355Z,100216.53
2018-08-03T04:30:03.234Z,100217.88
2018-08-03T04:35:07.986Z,100229.36
2018-08-03T04:40:12.950Z,100218.12
2018-08-03T04:45:17.665Z,100225.94
2018-08-03T04:50:22.408Z,100218.23
2018-08-03T04:55:26.718Z,100230.73
2018-08-03T05:00:31.408Z,100234.10
2018-08-03T05:05:36.055Z,100235.30
2018-08-03T05:10:40.780Z,100239.32
2018-08-03T05:15:45.615Z,100236.63
2018-08-03T05:20:50.351Z,100244.27
2018-08-03T05:25:55.096Z,100247.44
2018-08-03T05:30:59.415Z,100237.52
2018-08-03T05:36:04.180Z,100242.49
2018-08-03T05:41:08.943Z,100245.45
2018-08-03T05:46:13.685Z,100236.98
2018-08-03T05:51:18.449Z,100237.45
2018-08-03T05:56:23.198Z,100223.04
2018-08-03T06:01:27.907Z,100233.42
2018-08-03T06:06:32.597Z,100240.13
2018-08-03T06:11:37.360Z,100243.11
2018-08-03T06:16:42.003Z,100245.65
2018-08-03T06:21:46.699Z,100239.08
2018-08-03T06:26:51.327Z,100237.24
2018-08-03T06:31:56.205Z,100236.78
2018-08-03T06:37:01.025Z,100236.13
2018-08-03T06:42:05.840Z,100238.94
2018-08-03T06:47:10.590Z,100233.23
2018-08-03T06:52:15.412Z,100226.66
2018-08-03T06:57:21.986Z,100226.45
2018-08-03T07:02:26.566Z,100218.45
2018-08-03T07:07:31.259Z,100214.28
2018-08-03T07:12:36.026Z,100205.81
2018-08-03T07:17:40.703Z,100206.02
2018-08-03T07:22:45.501Z,100210.56
2018-08-03T07:27:50.294Z,100212.37
2018-08-03T07:32:55.028Z,100211.81
2018-08-03T07:37:59.663Z,100210.53
2018-08-03T07:43:04.347Z,100207.84
2018-08-03T07:48:09.299Z,100210.23
2018-08-03T07:53:14.089Z,100213.29
2018-08-03T07:58:18.790Z,100209.84
2018-08-03T08:03:23.481Z,100205.16
2018-08-03T08:08:28.328Z,100195.94
2018-08-03T08:13:33.008Z,100197.35
2018-08-03T08:18:37.780Z,100194.88
2018-08-03T08:23:42.517Z,100190.48
2018-08-03T08:28:47.364Z,100182.63
2018-08-03T08:33:52.150Z,100184.72
2018-08-03T08:38:56.886Z,100174.27
2018-08-03T08:44:01.603Z,100181.80
2018-08-03T08:49:06.665Z,100177.30
2018-08-03T08:54:11.348Z,100172.63
2018-08-03T08:59:16.001Z,100172.56
2018-08-03T09:04:20.750Z,100165.28
2018-08-03T09:09:25.477Z,100169.68
2018-08-03T09:14:30.282Z,100164.22
2018-08-03T09:19:34.964Z,100164.99
2018-08-03T09:24:39.743Z,100162.89
2018-08-03T09:29:44.449Z,100157.89
2018-08-03T09:34:49.159Z,100157.97
2018-08-03T09:39:53.872Z,100149.73
2018-08-03T09:44:58.695Z,100147.42
2018-08-03T09:50:03.533Z,100134.93
2018-08-03T09:55:08.327Z,100134.17
2018-08-03T10:00:15.791Z,100127.14
2018-08-03T10:05:20.522Z,100118.16
2018-08-03T10:10:25.248Z,100121.89
2018-08-03T10:15:30.011Z,100115.31
2018-08-03T10:20:34.926Z,100108.88
2018-08-03T10:25:39.799Z,100107.52
2018-08-03T10:30:44.437Z,100097.08
2018-08-03T10:35:49.093Z,100098.52
2018-08-03T10:40:53.860Z,100083.59
2018-08-03T10:45:58.604Z,100077.28
2018-08-03T10:51:03.374Z,100066.70
2018-08-03T10:56:07.745Z,100071.17
2018-08-03T11:01:12.402Z,100062.35
2018-08-03T11:06:17.067Z,100043.80
2018-08-03T11:11:21.735Z,100048.67
2018-08-03T11:16:26.560Z,100046.45
2018-08-03T11:21:31.363Z,100038.52
2018-08-03T11:26:36.451Z,100028.31
2018-08-03T11:31:41.169Z,100031.55
2018-08-03T11:36:45.746Z,100022.90
2018-08-03T11:41:50.467Z,100017.17
2018-08-03T11:46:55.292Z,100008.60
2018-08-03T11:52:00.057Z,99999.09
2018-08-03T11:57:04.833Z,99997.00
2018-08-03T12:02:09.620Z,100007.03
2018-08-03T12:07:14.397Z,99997.21
2018-08-03T12:12:19.076Z,99992.42
2018-08-03T12:17:23.772Z,99982.67
2018-08-03T12:22:28.540Z,99982.78
2018-08-03T12:27:33.162Z,99976.76
2018-08-03T12:32:37.906Z,99968.32
2018-08-03T12:37:42.637Z,99966.70
2018-08-03T12:42:47.424Z,99959.58
2018-08-03T12:47:52.173Z,99949.55
2018-08-03T12:52:57.009Z,99942.42
2018-08-03T12:58:01.751Z,99942.75
2018-08-03T13:03:07.175Z,99939.14
2018-08-03T13:08:12.052Z,99933.07
2018-08-03T13:13:16.698Z,99929.92
2018-08-03T13:18:21.312Z,99925.46
2018-08-03T13:23:25.965Z,99916.26
2018-08-03T13:28:30.716Z,99915.05
2018-08-03T13:33:35.404Z,99907.09
2018-08-03T13:38:40.168Z,99898.66
2018-08-03T13:43:45.246Z,99889.70
2018-08-03T13:48:50.581Z,99891.35
2018-08-03T13:53:55.273Z,99879.61
2018-08-03T13:58:59.901Z,99867.92
2018-08-03T14:04:04.598Z,99861.14
2018-08-03T14:09:09.303Z,99863.67
2018-08-03T14:14:14.695Z,99858.88
2018-08-03T14:19:19.361Z,99853.09
2018-08-03T14:24:24.088Z,99846.66
2018-08-03T14:29:28.824Z,99845.52
2018-08-03T14:34:33.671Z,99843.48
2018-08-03T14:39:38.452Z,99836.03
2018-08-03T14:44:43.240Z,99831.03
2018-08-03T14:49:47.890Z,99825.05
2018-08-03T14:54:52.498Z,99821.05
2018-08-03T14:59:59.133Z,99820.64
2018-08-03T15:05:03.908Z,99816.68
2018-08-03T15:10:08.675Z,99803.19
2018-08-03T15:15:13.587Z,99795.58
2018-08-03T15:20:18.317Z,99801.97
2018-08-03T15:25:23.010Z,99789.36
2018-08-03T15:30:27.695Z,99787.00
2018-08-03T15:35:32.351Z,99782.87
2018-08-03T15:40:37.091Z,99783.57
2018-08-03T15:45:41.887Z,99782.60
2018-08-03T15:50:46.606Z,99776.43
2018-08-03T15:55:51.357Z,99771.88
2018-08-03T16:00:56.151Z,99763.53
2018-08-03T16:06:00.519Z,99760.27
2018-08-03T16:11:05.266Z,99752.45
2018-08-03T16:16:10.255Z,99757.70
2018-08-03T16:21:15.077Z,99752.30
2018-08-03T16:26:19.952Z,99747.20
2018-08-03T16:31:24.628Z,99748.84
2018-08-03T16:36:29.401Z,99747.14
2018-08-03T16:41:34.107Z,99740.67
2018-08-03T16:46:39.077Z,99736.94
2018-08-03T16:51:43.743Z,99746.41
2018-08-03T16:56:48.462Z,99744.38
2018-08-03T17:01:53.418Z,99741.11
2018-08-03T17:06:58.020Z,99743.95
2018-08-03T17:12:02.810Z,99739.80
2018-08-03T17:17:07.955Z,99742.22
2018-08-03T17:22:12.824Z,99734.06
2018-08-03T17:27:17.623Z,99732.42
2018-08-03T17:32:22.367Z,99736.06
2018-08-03T17:37:27.046Z,99736.41
2018-08-03T17:42:31.817Z,99732.80
2018-08-03T17:47:36.756Z,99734.12
2018-08-03T17:52:41.823Z,99734.58
2018-08-03T17:57:46.980Z,99727.48
2018-08-03T18:02:51.454Z,99735.91
2018-08-03T18:07:56.159Z,99735.84
2018-08-03T18:13:00.848Z,99731.78
2018-08-03T18:18:05.662Z,99736.38
2018-08-03T18:23:10.399Z,99737.14
2018-08-03T18:28:15.059Z,99738.14
2018-08-03T18:33:19.680Z,99740.93
2018-08-03T18:38:24.396Z,99746.02
2018-08-03T18:43:29.118Z,99747.81
2018-08-03T18:48:33.735Z,99744.38
2018-08-03T18:53:38.402Z,99750.14
2018-08-03T18:58:43.295Z,99756.23
2018-08-03T19:03:47.945Z,99753.05
2018-08-03T19:08:52.734Z,99762.69
2018-08-03T19:13:57.381Z,99766.67
2018-08-03T19:19:02.060Z,99784.56
2018-08-03T19:24:07.221Z,99793.66
2018-08-03T19:29:11.928Z,99800.70
2018-08-03T19:34:16.632Z,99818.59
2018-08-03T19:39:21.531Z,99828.04
2018-08-03T19:44:26.306Z,99825.43
2018-08-03T19:49:30.996Z,99827.55
2018-08-03T19:54:35.728Z,99829.00
2018-08-03T19:59:41.160Z,99831.68
2018-08-03T20:04:45.817Z,99839.92
2018-08-03T20:09:50.639Z,99836.20
2018-08-03T20:14:55.457Z,99827.08
2018-08-03T20:20:00.217Z,99831.89
2018-08-03T20:25:06.091Z,99829.48
2018-08-03T20:30:10.828Z,99840.34
2018-08-03T20:35:15.624Z,99846.90
2018-08-03T20:40:20.397Z,99848.70
2018-08-03T20:45:25.232Z,99843.02
2018-08-03T20:50:29.988Z,99847.50
2018-08-03T20:55:35.030Z,99845.04
2018-08-03T21:00:39.647Z,99858.40
2018-08-03T21:05:44.331Z,99857.10
2018-08-03T21:10:49.004Z,99853.13
2018-08-03T21:15:53.887Z,99855.42
2018-08-03T21:20:58.598Z,99852.98
2018-08-03T21:26:03.358Z,99853.97
2018-08-03T21:31:08.151Z,99859.05
2018-08-03T21:36:12.930Z,99856.37
2018-08-03T21:41:17.640Z,99855.05
2018-08-03T21:46:22.446Z,99853.64
2018-08-03T21:51:27.201Z,99850.22
2018-08-03T21:56:31.990Z,99841.98
2018-08-03T22:01:36.730Z,99843.17
2018-08-03T22:06:41.488Z,99845.27
2018-08-03T22:11:46.168Z,99847.34
2018-08-03T22:16:50.920Z,99843.16
2018-08-03T22:21:55.653Z,99844.42
2018-08-03T22:27:00.317Z,99833.40
2018-08-03T22:32:05.083Z,99837.92
2018-08-03T22:37:09.806Z,99836.97
2018-08-03T22:42:14.583Z,99839.14
2018-08-03T22:47:19.283Z,99837.48
2018-08-03T22:52:24.225Z,99831.97
2018-08-03T22:57:28.885Z,99830.68
2018-08-03T23:02:33.681Z,99832.30
2018-08-03T23:07:38.423Z,99837.28
2018-08-03T23:12:43.128Z,99828.94
2018-08-03T23:17:48.602Z,99834.05
2018-08-03T23:22:53.361Z,99837.16
2018-08-03T23:27:58.320Z,99828.66
2018-08-03T23:33:03.273Z,99824.40
2018-08-03T23:38:07.967Z,99829.44
2018-08-03T23:43:12.809Z,99830.81
2018-08-03T23:48:17.722Z,99833.31
2018-08-03T23:53:22.396Z,99836.80
2018-08-03T23:58:27.178Z,99826.77
